Time;durP1;ratioP1;P1;durP2;ratioP2;P2;SDS_P1;SDS_P2;PMS_P1;PMS_P2;Temp;Humidity;BMP_temperature;BMP_pressure;BME280_temperature;BME280_humidity;BME280_pressure;Samples;Min_cycle;Max_cycle;Signal;HPM_P1;HPM_P2
2023/10/05 00:01:47;;;;;;;4.20;1.40;;;;;;;;;;4958351;28;94487;-86
2023/10/05 00:04:18;;;;;;;7.60;1.63;;;;;;;;;;4951305;28;98108;-86
2023/10/05 00:06:45;;;;;;;7.38;1.85;;;;;;;;;;4949889;28;92974;-86
2023/10/05 00:09:15;;;;;;;9.10;1.60;;;;;;;;;;4960267;28;92733;-87
2023/10/05 00:11:42;;;;;;;5.00;1.38;;;;;;;;;;4935136;28;95345;-86
2023/10/05 00:14:12;;;;;;;7.47;1.65;;;;;;;;;;4950971;28;92598;-87
2023/10/05 00:16:43;;;;;;;5.32;1.70;;;;;;;;;;4953076;28;92623;-86
2023/10/05 00:19:11;;;;;;;5.57;1.52;;;;;;;;;;4950864;28;96007;-86
2023/10/05 00:21:40;;;;;;;6.10;1.60;;;;;;;;;;4962304;28;93103;-85
2023/10/05 00:24:07;;;;;;;6.80;1.85;;;;;;;;;;4955275;28;92481;-85
2023/10/05 00:26:34;;;;;;;8.43;1.77;;;;;;;;;;4953497;28;92573;-86
2023/10/05 00:29:27;;;;;;;;;;;;;;;;;;4959109;28;95313;-86
2023/10/05 00:31:47;;;;;;;6.38;1.77;;;;;;;;;;4963045;28;101491;-86
2023/10/05 00:34:24;;;;;;;4.15;1.42;;;;;;;;;;4965724;28;92481;-86
2023/10/05 00:36:53;;;;;;;6.18;1.60;;;;;;;;;;4977348;28;92175;-86
2023/10/05 00:39:21;;;;;;;7.35;1.60;;;;;;;;;;4953921;28;94043;-86
2023/10/05 00:42:21;;;;;;;5.05;1.58;;;;;;;;;;4963073;28;92748;-88
2023/10/05 00:44:41;;;;;;;4.65;1.40;;;;;;;;;;4961540;28;98540;-85
2023/10/05 00:47:11;;;;;;;;;;;;;;;;;;4978271;28;97088;-85
2023/10/05 00:49:45;;;;;;;6.32;1.60;;;;;;;;;;4962841;28;94519;-85
2023/10/05 00:52:15;;;;;;;4.57;1.40;;;;;;;;;;4962916;28;93338;-86
2023/10/05 00:54:45;;;;;;;5.20;1.50;;;;;;;;;;4963415;28;92487;-86
2023/10/05 00:57:14;;;;;;;6.97;1.60;;;;;;;;;;4955392;28;93102;-86
2023/10/05 00:59:41;;;;;;;4.35;1.25;;;;;;;;;;4950522;28;93078;-85
2023/10/05 01:02:21;;;;;;;;;;;;;;;;;;4949944;28;92995;-85
2023/10/05 01:05:00;;;;;;;6.70;1.60;;;;;;;;;;4949118;28;119245;-85
2023/10/05 01:07:43;;;;;;;8.77;1.75;;;;;;;;;;4954440;28;92926;-87
2023/10/05 01:12:50;;;;;;;6.88;1.40;;;;;;;;;;4959758;28;96213;-85
2023/10/05 01:15:22;;;;;;;6.07;1.45;;;;;;;;;;4933700;28;92485;-86
2023/10/05 01:17:52;;;;;;;7.68;1.40;;;;;;;;;;4930973;28;94513;-87
2023/10/05 01:20:23;;;;;;;7.38;1.80;;;;;;;;;;4927980;28;93164;-86
2023/10/05 01:22:50;;;;;;;5.85;1.50;;;;;;;;;;4929442;28;93008;-86
2023/10/05 01:25:17;;;;;;;5.75;1.50;;;;;;;;;;4936115;28;94700;-85
2023/10/05 01:27:47;;;;;;;6.53;1.75;;;;;;;;;;4934859;28;94682;-85
2023/10/05 01:30:17;;;;;;;6.05;1.33;;;;;;;;;;4936327;28;92862;-87
2023/10/05 01:32:44;;;;;;;7.00;1.58;;;;;;;;;;4933546;28;93176;-81
2023/10/05 01:35:12;;;;;;;6.43;1.70;;;;;;;;;;4925532;28;94910;-83
2023/10/05 01:37:40;;;;;;;6.07;1.75;;;;;;;;;;4932588;28;95185;-83
2023/10/05 01:40:12;;;;;;;6.93;1.65;;;;;;;;;;4930423;28;93065;-85
2023/10/05 01:42:43;;;;;;;7.30;1.65;;;;;;;;;;4947582;28;92547;-84
2023/10/05 01:45:15;;;;;;;8.85;1.60;;;;;;;;;;4929268;28;94750;-84
2023/10/05 01:47:45;;;;;;;6.75;1.48;;;;;;;;;;4950320;28;93008;-85
2023/10/05 01:50:19;;;;;;;6.05;1.45;;;;;;;;;;4949217;28;92771;-84
2023/10/05 01:53:39;;;;;;;5.80;1.77;;;;;;;;;;4952685;28;93810;-84
2023/10/05 01:55:39;;;;;;;7.47;1.70;;;;;;;;;;4934232;28;92575;-84
2023/10/05 01:58:08;;;;;;;6.10;1.67;;;;;;;;;;4963297;28;95935;-85
2023/10/05 02:00:38;;;;;;;7.20;1.50;;;;;;;;;;4930306;28;98228;-86
2023/10/05 02:03:12;;;;;;;4.93;1.55;;;;;;;;;;4944565;28;92489;-84
2023/10/05 02:05:39;;;;;;;5.50;1.40;;;;;;;;;;4963538;28;93155;-85
2023/10/05 02:08:05;;;;;;;6.50;1.77;;;;;;;;;;4948379;28;93292;-85
2023/10/05 02:10:33;;;;;;;8.27;1.50;;;;;;;;;;4949451;28;92454;-85
2023/10/05 02:13:01;;;;;;;5.10;1.38;;;;;;;;;;4938458;28;93185;-85
2023/10/05 02:15:28;;;;;;;7.03;1.55;;;;;;;;;;4951161;28;92565;-84
2023/10/05 02:18:12;;;;;;;5.88;1.50;;;;;;;;;;4967270;28;95565;-84
2023/10/05 02:20:45;;;;;;;8.65;1.50;;;;;;;;;;4948275;28;94044;-84
2023/10/05 02:23:37;;;;;;;6.78;1.30;;;;;;;;;;4952790;28;92605;-84
2023/10/05 02:28:48;;;;;;;8.10;1.70;;;;;;;;;;4948262;28;93720;-84
2023/10/05 02:31:15;;;;;;;6.22;1.42;;;;;;;;;;4950030;28;92822;-84
2023/10/05 02:33:43;;;;;;;7.20;1.40;;;;;;;;;;4955934;28;92459;-84
2023/10/05 02:36:11;;;;;;;5.45;1.20;;;;;;;;;;4960032;28;93035;-83
2023/10/05 02:38:38;;;;;;;4.70;1.27;;;;;;;;;;4974900;28;92867;-83
2023/10/05 02:41:05;;;;;;;4.93;1.38;;;;;;;;;;4950979;28;94997;-84
2023/10/05 02:43:39;;;;;;;9.20;1.65;;;;;;;;;;4967405;28;92110;-87
2023/10/05 02:46:10;;;;;;;5.50;1.70;;;;;;;;;;4964285;28;93370;-85
2023/10/05 02:48:41;;;;;;;7.13;1.58;;;;;;;;;;4966838;28;92834;-85
2023/10/05 02:51:10;;;;;;;7.10;1.60;;;;;;;;;;4961312;28;94776;-85
2023/10/05 02:53:47;;;;;;;6.68;1.52;;;;;;;;;;4960739;28;94831;-85
2023/10/05 02:56:27;;;;;;;6.25;1.48;;;;;;;;;;4955220;28;96403;-85
2023/10/05 02:58:56;;;;;;;6.40;1.52;;;;;;;;;;4947797;28;92862;-85
2023/10/05 03:01:23;;;;;;;3.88;1.50;;;;;;;;;;4960514;28;92392;-85
2023/10/05 03:03:51;;;;;;;5.75;1.15;;;;;;;;;;4959637;28;92703;-85
2023/10/05 03:06:18;;;;;;;7.18;1.75;;;;;;;;;;4955152;28;95248;-86
2023/10/05 03:08:49;;;;;;;6.10;1.58;;;;;;;;;;4956498;28;92485;-86
2023/10/05 03:11:18;;;;;;;5.20;1.55;;;;;;;;;;4954665;28;92437;-86
2023/10/05 03:13:47;;;;;;;4.10;1.40;;;;;;;;;;4968813;28;95406;-86
2023/10/05 03:16:16;;;;;;;6.43;1.60;;;;;;;;;;4953932;28;102566;-85
2023/10/05 03:18:44;;;;;;;5.93;1.30;;;;;;;;;;4953867;28;92418;-86
2023/10/05 03:21:12;;;;;;;6.07;1.45;;;;;;;;;;4954899;28;92912;-86
2023/10/05 03:23:42;;;;;;;5.10;1.35;;;;;;;;;;4949840;28;93079;-86
2023/10/05 03:26:11;;;;;;;6.15;1.50;;;;;;;;;;4968291;28;95644;-86
2023/10/05 03:28:37;;;;;;;6.05;1.60;;;;;;;;;;4953940;28;93417;-86
2023/10/05 03:31:14;;;;;;;4.95;1.60;;;;;;;;;;4968048;28;92757;-86
2023/10/05 03:33:42;;;;;;;8.32;1.80;;;;;;;;;;4951304;28;95136;-86
2023/10/05 03:36:14;;;;;;;4.65;1.50;;;;;;;;;;4949253;28;95904;-85
2023/10/05 03:38:41;;;;;;;4.97;1.30;;;;;;;;;;4946673;28;93107;-86
2023/10/05 03:41:15;;;;;;;6.00;1.60;;;;;;;;;;4937554;28;95547;-85
2023/10/05 03:43:45;;;;;;;4.88;1.60;;;;;;;;;;4953422;28;95228;-86
2023/10/05 03:46:11;;;;;;;4.78;1.50;;;;;;;;;;4949163;28;95495;-85
2023/10/05 03:48:38;;;;;;;5.15;1.60;;;;;;;;;;4949849;28;99675;-86
2023/10/05 03:51:19;;;;;;;6.50;1.80;;;;;;;;;;4949155;28;93255;-84
2023/10/05 03:53:48;;;;;;;4.88;1.55;;;;;;;;;;4949234;28;95682;-85
2023/10/05 03:56:18;;;;;;;5.38;1.40;;;;;;;;;;4982486;28;99768;-84
2023/10/05 03:58:46;;;;;;;4.43;1.40;;;;;;;;;;4946644;28;92031;-84
2023/10/05 04:01:13;;;;;;;6.20;2.15;;;;;;;;;;4962003;28;94790;-84
2023/10/05 04:03:46;;;;;;;5.22;1.52;;;;;;;;;;4944214;28;95210;-84
2023/10/05 04:06:25;;;;;;;7.43;1.67;;;;;;;;;;4951377;28;96318;-85
2023/10/05 04:08:57;;;;;;;6.53;1.52;;;;;;;;;;4964971;28;96095;-85
2023/10/05 04:11:27;;;;;;;5.47;1.45;;;;;;;;;;4951269;28;92562;-85
2023/10/05 04:13:54;;;;;;;3.85;1.50;;;;;;;;;;4950197;28;92600;-85
2023/10/05 04:16:22;;;;;;;6.47;1.50;;;;;;;;;;4951170;28;93126;-85
2023/10/05 04:18:52;;;;;;;7.22;1.60;;;;;;;;;;4954000;28;92474;-85
2023/10/05 04:21:19;;;;;;;5.88;1.55;;;;;;;;;;4939616;28;93332;-85
2023/10/05 04:23:52;;;;;;;5.78;1.88;;;;;;;;;;4929640;28;94792;-86
2023/10/05 04:26:20;;;;;;;6.45;1.60;;;;;;;;;;4941127;28;95187;-85
2023/10/05 04:28:52;;;;;;;5.45;1.60;;;;;;;;;;4950052;28;93639;-86
2023/10/05 04:31:22;;;;;;;7.25;1.50;;;;;;;;;;4948433;28;96425;-86
2023/10/05 04:33:49;;;;;;;5.05;1.48;;;;;;;;;;4950540;28;95253;-85
2023/10/05 04:36:17;;;;;;;;;;;;;;;;;;4951395;28;93339;-86
2023/10/05 04:38:44;;;;;;;5.32;1.52;;;;;;;;;;4951539;28;92507;-88
2023/10/05 04:41:13;;;;;;;7.45;1.80;;;;;;;;;;4946424;28;92694;-86
2023/10/05 04:43:40;;;;;;;4.80;1.30;;;;;;;;;;4946425;28;94186;-88
2023/10/05 04:46:09;;;;;;;6.45;2.03;;;;;;;;;;4965017;28;92465;-84
2023/10/05 04:48:38;;;;;;;5.22;1.83;;;;;;;;;;4958182;28;92652;-86
2023/10/05 04:51:13;;;;;;;7.63;1.70;;;;;;;;;;4951041;28;92434;-85
2023/10/05 04:53:42;;;;;;;4.65;1.55;;;;;;;;;;4951290;28;93178;-86
2023/10/05 04:56:28;;;;;;;6.63;1.50;;;;;;;;;;4949277;28;95593;-86
2023/10/05 05:01:56;;;;;;;5.43;1.50;;;;;;;;;;4956014;28;92711;-85
2023/10/05 05:07:09;;;;;;;7.88;1.90;;;;;;;;;;4952136;28;93025;-85
2023/10/05 05:09:38;;;;;;;5.53;1.48;;;;;;;;;;4951771;28;95969;-85
2023/10/05 05:12:09;;;;;;;6.72;1.63;;;;;;;;;;4953346;28;93096;-86
2023/10/05 05:14:41;;;;;;;5.40;1.60;;;;;;;;;;4954656;28;94346;-85
2023/10/05 05:17:10;;;;;;;5.45;1.60;;;;;;;;;;4954887;28;92475;-86
2023/10/05 05:19:40;;;;;;;7.03;1.80;;;;;;;;;;4954119;28;92800;-85
2023/10/05 05:22:08;;;;;;;5.65;1.50;;;;;;;;;;4946551;28;95229;-86
2023/10/05 05:24:36;;;;;;;7.32;1.85;;;;;;;;;;4957080;28;94117;-86
2023/10/05 05:27:21;;;;;;;5.82;1.90;;;;;;;;;;4953523;28;92428;-85
2023/10/05 05:29:51;;;;;;;6.60;1.63;;;;;;;;;;4948919;28;92953;-86
2023/10/05 05:32:19;;;;;;;7.20;1.92;;;;;;;;;;4953942;28;99250;-86
2023/10/05 05:34:49;;;;;;;8.48;1.80;;;;;;;;;;4953823;28;92636;-86
2023/10/05 05:37:28;;;;;;;8.18;1.90;;;;;;;;;;4973121;28;93524;-88
2023/10/05 05:39:57;;;;;;;6.00;1.63;;;;;;;;;;4962673;28;91832;-85
2023/10/05 05:42:30;;;;;;;5.85;1.63;;;;;;;;;;4947748;28;92750;-84
2023/10/05 05:44:57;;;;;;;6.07;1.95;;;;;;;;;;4951175;28;93570;-84
2023/10/05 05:47:23;;;;;;;7.28;1.80;;;;;;;;;;4947706;28;95448;-84
2023/10/05 05:49:50;;;;;;;6.75;1.80;;;;;;;;;;4952478;28;95294;-83
2023/10/05 05:52:17;;;;;;;5.07;1.60;;;;;;;;;;4948402;28;93206;-84
2023/10/05 05:54:47;;;;;;;6.68;1.40;;;;;;;;;;4937904;28;92417;-85
2023/10/05 05:57:20;;;;;;;6.70;1.90;;;;;;;;;;4941417;28;92762;-86
2023/10/05 05:59:47;;;;;;;7.97;2.05;;;;;;;;;;4949074;28;93696;-86
2023/10/05 06:02:14;;;;;;;7.32;1.80;;;;;;;;;;4948920;28;92979;-85
2023/10/05 06:04:41;;;;;;;6.32;1.60;;;;;;;;;;4949086;28;92699;-86
2023/10/05 06:07:17;;;;;;;5.18;1.67;;;;;;;;;;4949071;28;92536;-85
2023/10/05 06:09:47;;;;;;;6.18;1.55;;;;;;;;;;4949599;28;92740;-86
2023/10/05 06:12:15;;;;;;;8.05;1.70;;;;;;;;;;4947796;28;96451;-86
2023/10/05 06:14:42;;;;;;;5.70;1.80;;;;;;;;;;4949789;28;92557;-90
2023/10/05 06:17:09;;;;;;;5.97;1.50;;;;;;;;;;4951956;28;92766;-85
2023/10/05 06:19:36;;;;;;;6.53;1.58;;;;;;;;;;4956775;28;92481;-86
2023/10/05 06:22:06;;;;;;;6.78;1.70;;;;;;;;;;4947860;28;100062;-85
2023/10/05 06:24:35;;;;;;;6.20;1.58;;;;;;;;;;4963415;28;93815;-84
2023/10/05 06:27:02;;;;;;;7.10;1.85;;;;;;;;;;4962544;28;92955;-85
2023/10/05 06:29:29;;;;;;;6.93;1.75;;;;;;;;;;4945034;28;92918;-84
2023/10/05 06:31:56;;;;;;;6.53;1.70;;;;;;;;;;4946908;28;93184;-84
2023/10/05 06:34:22;;;;;;;6.10;1.73;;;;;;;;;;4948416;28;92564;-82
2023/10/05 06:36:51;;;;;;;7.70;1.67;;;;;;;;;;4948183;28;94866;-83
2023/10/05 06:39:18;;;;;;;7.18;1.88;;;;;;;;;;4950720;28;92794;-83
2023/10/05 06:41:53;;;;;;;7.80;1.80;;;;;;;;;;4947183;28;92833;-84
2023/10/05 06:44:23;;;;;;;7.60;1.70;;;;;;;;;;4932304;28;96163;-84
2023/10/05 06:46:50;;;;;;;4.75;1.60;;;;;;;;;;4950092;28;92506;-84
2023/10/05 06:49:17;;;;;;;6.22;1.63;;;;;;;;;;4943780;28;92817;-84
2023/10/05 06:51:43;;;;;;;4.93;1.55;;;;;;;;;;4944613;28;93105;-83
2023/10/05 06:54:15;;;;;;;8.05;1.90;;;;;;;;;;4926888;28;94702;-84
2023/10/05 06:56:48;;;;;;;5.78;1.65;;;;;;;;;;4928176;28;92767;-83
2023/10/05 06:59:14;;;;;;;5.20;1.63;;;;;;;;;;4925090;28;95755;-83
2023/10/05 07:01:41;;;;;;;6.03;1.60;;;;;;;;;;4944452;28;95824;-83
2023/10/05 07:04:08;;;;;;;6.43;1.60;;;;;;;;;;4916599;28;93244;-83
2023/10/05 07:06:35;;;;;;;5.57;1.70;;;;;;;;;;4929024;28;92827;-83
2023/10/05 07:09:02;;;;;;;3.72;1.45;;;;;;;;;;4929821;28;93494;-83
2023/10/05 07:11:30;;;;;;;4.30;1.42;;;;;;;;;;4931596;28;92759;-83
2023/10/05 07:13:57;;;;;;;7.07;1.77;;;;;;;;;;4930374;28;93015;-83
2023/10/05 07:16:24;;;;;;;4.90;1.58;;;;;;;;;;4931550;28;93426;-83
2023/10/05 07:18:51;;;;;;;;;;;;;;;;;;4941793;28;93641;-83
2023/10/05 07:21:17;;;;;;;7.03;1.60;;;;;;;;;;4955113;28;99053;-83
2023/10/05 07:23:44;;;;;;;6.15;1.63;;;;;;;;;;4951430;28;92807;-83
2023/10/05 07:26:10;;;;;;;5.85;1.48;;;;;;;;;;4949357;28;94992;-83
2023/10/05 07:28:37;;;;;;;4.50;1.70;;;;;;;;;;4950994;28;95444;-83
2023/10/05 07:31:04;;;;;;;6.18;1.70;;;;;;;;;;4951244;28;93095;-83
2023/10/05 07:33:33;;;;;;;5.72;1.50;;;;;;;;;;4950933;28;92423;-83
2023/10/05 07:36:00;;;;;;;4.60;1.50;;;;;;;;;;4951580;28;93243;-83
2023/10/05 07:38:26;;;;;;;7.25;1.83;;;;;;;;;;4954658;28;93168;-83
2023/10/05 07:40:53;;;;;;;5.57;1.63;;;;;;;;;;4952631;28;92651;-82
2023/10/05 07:43:20;;;;;;;5.55;1.63;;;;;;;;;;4955757;28;92027;-83
2023/10/05 07:45:47;;;;;;;4.85;1.80;;;;;;;;;;4954787;28;93883;-83
2023/10/05 07:48:14;;;;;;;5.43;1.58;;;;;;;;;;4937462;28;96708;-83
2023/10/05 07:50:42;;;;;;;8.10;1.77;;;;;;;;;;4950650;28;96035;-83
2023/10/05 07:53:09;;;;;;;5.75;1.67;;;;;;;;;;4950377;28;92475;-83
2023/10/05 07:55:36;;;;;;;5.30;1.60;;;;;;;;;;4950216;28;92551;-83
2023/10/05 07:58:04;;;;;;;5.63;1.73;;;;;;;;;;4948677;28;93154;-83
2023/10/05 08:00:32;;;;;;;5.75;1.70;;;;;;;;;;4950466;28;92596;-83
2023/10/05 08:02:59;;;;;;;6.57;1.50;;;;;;;;;;4933664;28;95951;-83
2023/10/05 08:05:26;;;;;;;7.15;1.60;;;;;;;;;;4944124;28;93110;-83
2023/10/05 08:07:54;;;;;;;7.20;2.00;;;;;;;;;;4951180;28;92230;-82
2023/10/05 08:10:21;;;;;;;6.05;1.63;;;;;;;;;;4950413;28;93058;-84
2023/10/05 08:12:50;;;;;;;6.07;1.67;;;;;;;;;;4949890;28;92553;-83
2023/10/05 08:15:18;;;;;;;6.90;1.80;;;;;;;;;;4948970;28;95389;-83
2023/10/05 08:17:46;;;;;;;6.72;1.83;;;;;;;;;;4950281;28;92919;-83
2023/10/05 08:20:12;;;;;;;;;;;;;;;;;;4950123;28;92577;-83
2023/10/05 08:22:39;;;;;;;5.20;1.60;;;;;;;;;;4950800;28;110373;-83
2023/10/05 08:25:11;;;;;;;8.00;2.10;;;;;;;;;;4950451;28;93115;-83
2023/10/05 08:27:42;;;;;;;5.28;1.65;;;;;;;;;;4953200;28;92366;-83
2023/10/05 08:30:12;;;;;;;5.80;1.70;;;;;;;;;;4949183;28;93371;-83
2023/10/05 08:32:39;;;;;;;6.20;1.70;;;;;;;;;;4950167;28;92629;-83
2023/10/05 08:35:12;;;;;;;5.05;1.50;;;;;;;;;;4949906;28;92750;-83
2023/10/05 08:37:42;;;;;;;5.30;1.70;;;;;;;;;;4949612;28;93365;-83
2023/10/05 08:41:00;;;;;;;5.85;1.73;;;;;;;;;;4947829;28;94940;-83
2023/10/05 08:43:08;;;;;;;6.78;1.95;;;;;;;;;;4946517;28;95074;-83
2023/10/05 08:45:51;;;;;;;5.95;1.60;;;;;;;;;;4946033;28;93208;-83
2023/10/05 08:48:28;;;;;;;7.10;1.90;;;;;;;;;;4953558;28;92878;-83
2023/10/05 08:51:04;;;;;;;7.15;1.83;;;;;;;;;;4952937;28;93068;-83
2023/10/05 08:53:32;;;;;;;5.70;1.77;;;;;;;;;;4949908;28;92536;-83
2023/10/05 08:55:59;;;;;;;6.25;1.85;;;;;;;;;;4949402;28;92608;-83
2023/10/05 08:58:28;;;;;;;;;;;;;;;;;;4948989;28;94103;-83
2023/10/05 09:00:59;;;;;;;6.63;1.60;;;;;;;;;;4951011;28;92646;-83
2023/10/05 09:03:29;;;;;;;6.80;1.60;;;;;;;;;;4949594;28;93058;-83
2023/10/05 09:06:13;;;;;;;5.90;1.60;;;;;;;;;;4946470;28;95555;-83
2023/10/05 09:08:44;;;;;;;7.63;1.80;;;;;;;;;;4944225;28;92508;-83
2023/10/05 09:11:14;;;;;;;5.13;1.58;;;;;;;;;;4944031;28;92702;-83
2023/10/05 09:13:47;;;;;;;7.18;1.90;;;;;;;;;;4952095;28;93734;-83
2023/10/05 09:16:30;;;;;;;6.47;1.73;;;;;;;;;;4944147;28;97115;-82
2023/10/05 09:18:57;;;;;;;3.78;1.40;;;;;;;;;;4938867;28;93889;-83
2023/10/05 09:24:26;;;;;;;6.93;1.60;;;;;;;;;;4946730;28;97364;-83
2023/10/05 09:26:54;;;;;;;4.82;1.50;;;;;;;;;;4960198;28;93932;-83
2023/10/05 09:29:24;;;;;;;4.90;1.50;;;;;;;;;;4939918;28;92439;-83
2023/10/05 09:31:50;;;;;;;7.00;1.90;;;;;;;;;;4948564;28;94990;-82
2023/10/05 09:34:19;;;;;;;7.07;1.80;;;;;;;;;;4950823;28;96383;-83
2023/10/05 09:36:46;;;;;;;6.47;1.90;;;;;;;;;;4947864;28;92533;-83
2023/10/05 09:39:14;;;;;;;7.38;1.65;;;;;;;;;;4973454;28;95135;-82
2023/10/05 09:41:41;;;;;;;6.63;1.73;;;;;;;;;;4950376;28;92520;-83
2023/10/05 09:44:10;;;;;;;6.07;1.70;;;;;;;;;;4950840;28;93884;-84
2023/10/05 09:46:37;;;;;;;5.50;1.67;;;;;;;;;;4964153;28;92437;-83
2023/10/05 09:49:05;;;;;;;4.40;1.65;;;;;;;;;;4968908;28;91654;-83
2023/10/05 09:51:35;;;;;;;5.40;1.60;;;;;;;;;;4952167;28;92501;-83
2023/10/05 09:54:02;;;;;;;5.18;1.63;;;;;;;;;;4970527;28;92455;-82
2023/10/05 09:56:29;;;;;;;6.43;1.67;;;;;;;;;;4953898;28;95230;-83
2023/10/05 09:59:15;;;;;;;5.53;1.60;;;;;;;;;;4975844;28;98015;-82
2023/10/05 10:01:48;;;;;;;5.03;1.67;;;;;;;;;;4945426;28;93038;-83
2023/10/05 10:04:28;;;;;;;4.50;1.60;;;;;;;;;;4955362;28;96980;-83
2023/10/05 10:06:58;;;;;;;5.97;1.70;;;;;;;;;;4953265;28;93285;-83
2023/10/05 10:09:26;;;;;;;5.43;1.60;;;;;;;;;;4953255;28;92671;-83
2023/10/05 10:11:57;;;;;;;5.57;1.73;;;;;;;;;;4965108;28;95656;-83
2023/10/05 10:14:28;;;;;;;5.22;1.60;;;;;;;;;;4933284;28;93208;-83
2023/10/05 10:17:00;;;;;;;6.18;1.63;;;;;;;;;;4933083;28;92445;-83
2023/10/05 10:19:28;;;;;;;4.93;1.55;;;;;;;;;;4931462;28;92905;-83
2023/10/05 10:22:11;;;;;;;5.28;1.60;;;;;;;;;;4929927;28;95446;-83
2023/10/05 10:24:40;;;;;;;4.60;1.70;;;;;;;;;;4928282;28;95467;-83
2023/10/05 10:27:07;;;;;;;4.18;1.50;;;;;;;;;;4923597;28;94352;-83
2023/10/05 10:29:42;;;;;;;6.07;1.55;;;;;;;;;;4922353;28;92377;-83
2023/10/05 10:32:35;;;;;;;4.80;1.60;;;;;;;;;;4928670;28;93487;-83
2023/10/05 10:35:26;;;;;;;4.85;1.63;;;;;;;;;;4942007;28;95769;-83
2023/10/05 10:37:59;;;;;;;4.63;1.50;;;;;;;;;;4920018;28;92464;-82
2023/10/05 10:40:26;;;;;;;6.97;1.60;;;;;;;;;;4952492;28;92719;-83
2023/10/05 10:43:06;;;;;;;;;;;;;;;;;;4955256;28;94073;-84
2023/10/05 10:45:44;;;;;;;8.52;2.38;;;;;;;;;;4951598;28;94042;-83
2023/10/05 10:50:45;;;;;;;12.15;2.40;;;;;;;;;;4936574;28;92826;-85
2023/10/05 10:53:18;;;;;;;9.40;2.20;;;;;;;;;;4927235;28;92488;-85
2023/10/05 10:55:51;;;;;;;8.43;2.17;;;;;;;;;;4925241;28;93462;-85
2023/10/05 10:58:25;;;;;;;10.65;2.22;;;;;;;;;;4931237;28;92568;-84
2023/10/05 11:00:56;;;;;;;10.75;2.50;;;;;;;;;;4932089;28;96114;-85
2023/10/05 11:03:27;;;;;;;11.18;2.38;;;;;;;;;;4931892;28;93101;-85
2023/10/05 11:05:58;;;;;;;9.73;2.20;;;;;;;;;;4933448;28;92967;-84
2023/10/05 11:08:30;;;;;;;10.65;2.50;;;;;;;;;;4918732;28;93286;-84
2023/10/05 11:11:09;;;;;;;8.45;2.25;;;;;;;;;;4920329;28;92649;-85
2023/10/05 11:13:49;;;;;;;7.00;2.30;;;;;;;;;;4928884;28;94836;-85
2023/10/05 11:16:16;;;;;;;10.07;2.53;;;;;;;;;;4929227;28;100139;-84
2023/10/05 11:19:00;;;;;;;7.38;2.53;;;;;;;;;;4936934;28;92970;-85
2023/10/05 11:21:43;;;;;;;9.68;2.33;;;;;;;;;;4943423;28;96277;-85
2023/10/05 11:24:10;;;;;;;10.20;2.33;;;;;;;;;;4949831;28;92481;-85
2023/10/05 11:29:28;;;;;;;8.10;2.90;;;;;;;;;;4941889;28;97339;-85
2023/10/05 11:32:12;;;;;;;9.68;2.10;;;;;;;;;;4950232;28;91826;-85
2023/10/05 11:35:05;;;;;;;11.25;2.15;;;;;;;;;;4947467;28;92417;-85
2023/10/05 11:37:58;;;;;;;8.73;2.30;;;;;;;;;;4944116;28;95909;-84
2023/10/05 11:40:31;;;;;;;10.77;2.30;;;;;;;;;;4922394;28;96072;-84
2023/10/05 11:42:59;;;;;;;12.15;2.30;;;;;;;;;;4926860;28;97997;-85
2023/10/05 11:45:25;;;;;;;8.45;1.95;;;;;;;;;;4931505;28;94037;-84
2023/10/05 11:47:56;;;;;;;7.85;2.10;;;;;;;;;;4934127;28;93078;-84
2023/10/05 11:50:25;;;;;;;9.77;2.40;;;;;;;;;;4935814;28;92901;-85
2023/10/05 11:52:52;;;;;;;9.82;2.30;;;;;;;;;;4935415;28;93656;-87
2023/10/05 11:55:19;;;;;;;9.93;2.42;;;;;;;;;;4932250;28;93214;-84
2023/10/05 11:57:47;;;;;;;9.82;2.40;;;;;;;;;;4932893;28;92331;-85
2023/10/05 12:00:15;;;;;;;6.82;2.00;;;;;;;;;;4936854;28;93833;-85
2023/10/05 12:02:45;;;;;;;11.05;2.65;;;;;;;;;;4936083;28;93044;-85
2023/10/05 12:05:13;;;;;;;10.23;2.17;;;;;;;;;;4947573;28;94880;-85
2023/10/05 12:07:42;;;;;;;14.90;2.30;;;;;;;;;;4948470;28;92604;-85
2023/10/05 12:10:13;;;;;;;7.20;2.50;;;;;;;;;;4950733;28;93927;-85
2023/10/05 12:12:50;;;;;;;7.00;2.53;;;;;;;;;;4944047;28;93364;-85
2023/10/05 12:15:17;;;;;;;10.18;2.20;;;;;;;;;;4954224;28;92749;-85
2023/10/05 12:17:45;;;;;;;10.30;2.10;;;;;;;;;;4950430;28;93324;-85
2023/10/05 12:20:14;;;;;;;11.05;2.42;;;;;;;;;;4954857;28;92992;-84
2023/10/05 12:22:42;;;;;;;14.63;2.60;;;;;;;;;;4953129;28;92423;-85
2023/10/05 12:25:09;;;;;;;11.25;2.58;;;;;;;;;;4950698;28;93345;-83
2023/10/05 12:27:36;;;;;;;15.18;2.90;;;;;;;;;;4951467;28;92970;-85
2023/10/05 12:30:10;;;;;;;9.70;2.20;;;;;;;;;;4942283;28;94921;-83
2023/10/05 12:32:38;;;;;;;10.82;2.35;;;;;;;;;;4948175;28;93506;-83
2023/10/05 12:35:06;;;;;;;8.95;2.13;;;;;;;;;;4949339;28;92508;-82
2023/10/05 12:37:33;;;;;;;9.18;2.00;;;;;;;;;;4949082;28;93116;-83
2023/10/05 12:40:17;;;;;;;8.60;1.90;;;;;;;;;;4947271;28;92573;-83
2023/10/05 12:42:51;;;;;;;9.05;2.35;;;;;;;;;;4950357;28;92737;-83
2023/10/05 12:45:31;;;;;;;9.63;2.00;;;;;;;;;;4951195;28;92913;-82
2023/10/05 12:47:58;;;;;;;8.07;1.83;;;;;;;;;;4951496;28;92017;-84
2023/10/05 12:50:26;;;;;;;7.97;2.05;;;;;;;;;;4949600;28;92838;-83
2023/10/05 12:52:53;;;;;;;5.28;1.80;;;;;;;;;;4948951;28;93110;-83
2023/10/05 12:55:22;;;;;;;5.85;1.83;;;;;;;;;;4948178;28;94931;-82
2023/10/05 12:57:52;;;;;;;12.10;2.05;;;;;;;;;;4952186;28;95311;-81
2023/10/05 13:00:21;;;;;;;6.25;1.85;;;;;;;;;;4948633;28;92769;-83
2023/10/05 13:02:52;;;;;;;8.30;2.08;;;;;;;;;;4949264;28;93105;-83
2023/10/05 13:05:20;;;;;;;6.45;1.80;;;;;;;;;;4944433;28;96239;-83
2023/10/05 13:08:01;;;;;;;10.30;2.08;;;;;;;;;;4947881;28;92580;-84
2023/10/05 13:10:31;;;;;;;6.65;1.85;;;;;;;;;;4952344;28;92807;-83
2023/10/05 13:13:09;;;;;;;7.88;1.70;;;;;;;;;;4949879;28;92467;-83
2023/10/05 13:15:36;;;;;;;9.00;1.67;;;;;;;;;;4950683;28;92976;-83
2023/10/05 13:18:18;;;;;;;9.48;1.80;;;;;;;;;;4951762;28;93847;-82
2023/10/05 13:20:47;;;;;;;6.90;1.90;;;;;;;;;;4960566;28;94925;-84
2023/10/05 13:23:18;;;;;;;5.63;1.48;;;;;;;;;;4989399;28;95054;-84
2023/10/05 13:25:49;;;;;;;8.18;1.67;;;;;;;;;;4951897;28;93501;-83
2023/10/05 13:28:16;;;;;;;6.00;1.52;;;;;;;;;;4940374;28;92510;-84
2023/10/05 13:30:47;;;;;;;8.05;1.73;;;;;;;;;;4935832;28;93211;-84
2023/10/05 13:33:17;;;;;;;5.55;1.88;;;;;;;;;;4947085;28;99870;-85
2023/10/05 13:35:45;;;;;;;6.03;1.80;;;;;;;;;;4945554;28;92506;-85
2023/10/05 13:38:17;;;;;;;6.82;1.77;;;;;;;;;;4956913;28;93446;-84
2023/10/05 13:41:13;;;;;;;6.38;1.80;;;;;;;;;;4948198;28;93914;-84
2023/10/05 13:43:40;;;;;;;6.35;1.80;;;;;;;;;;4947275;28;92547;-84
2023/10/05 13:48:39;;;;;;;5.15;1.75;;;;;;;;;;4948638;28;92586;-85
2023/10/05 13:51:15;;;;;;;4.63;1.70;;;;;;;;;;4957060;28;93928;-85
2023/10/05 13:53:47;;;;;;;4.57;1.45;;;;;;;;;;4960678;28;92741;-85
2023/10/05 13:56:14;;;;;;;4.80;1.80;;;;;;;;;;4948921;28;93660;-85
2023/10/05 13:58:43;;;;;;;7.20;1.70;;;;;;;;;;4948625;28;93008;-85
2023/10/05 14:01:17;;;;;;;6.82;1.90;;;;;;;;;;4944029;28;99173;-86
2023/10/05 14:03:45;;;;;;;5.43;1.63;;;;;;;;;;4933806;28;98208;-86
2023/10/05 14:06:12;;;;;;;5.75;1.67;;;;;;;;;;4936357;28;98871;-85
2023/10/05 14:08:39;;;;;;;4.85;1.70;;;;;;;;;;4944843;28;98849;-86
2023/10/05 14:11:09;;;;;;;5.15;1.48;;;;;;;;;;4946261;28;99578;-85
2023/10/05 14:13:36;;;;;;;4.80;1.60;;;;;;;;;;4949143;28;99160;-85
2023/10/05 14:16:03;;;;;;;;;;;;;;;;;;4951253;28;99171;-85
2023/10/05 14:18:30;;;;;;;4.30;1.70;;;;;;;;;;4949979;28;101162;-85
2023/10/05 14:20:58;;;;;;;4.88;1.70;;;;;;;;;;4952016;28;99198;-86
2023/10/05 14:23:27;;;;;;;5.78;2.00;;;;;;;;;;4962859;28;98801;-87
2023/10/05 14:25:54;;;;;;;6.05;2.20;;;;;;;;;;4945304;28;98963;-85
2023/10/05 14:28:24;;;;;;;5.07;1.80;;;;;;;;;;4940061;28;98597;-86
2023/10/05 14:30:50;;;;;;;6.35;1.83;;;;;;;;;;4946675;28;98777;-86
2023/10/05 14:33:18;;;;;;;4.97;1.92;;;;;;;;;;4948854;28;99530;-85
2023/10/05 14:35:44;;;;;;;4.32;1.60;;;;;;;;;;4960327;28;99423;-86
2023/10/05 14:38:15;;;;;;;3.95;1.58;;;;;;;;;;4942352;28;99825;-86
2023/10/05 14:40:45;;;;;;;5.88;1.67;;;;;;;;;;4948142;28;99016;-85
2023/10/05 14:43:24;;;;;;;5.03;1.65;;;;;;;;;;4948727;28;98537;-85
2023/10/05 14:45:52;;;;;;;6.18;1.55;;;;;;;;;;4951861;28;98686;-83
2023/10/05 14:48:21;;;;;;;4.05;1.50;;;;;;;;;;4947420;28;100337;-84
2023/10/05 14:50:51;;;;;;;4.65;1.58;;;;;;;;;;4950643;28;98523;-84
2023/10/05 14:53:21;;;;;;;6.28;1.60;;;;;;;;;;4941212;28;98404;-84
2023/10/05 14:55:48;;;;;;;5.57;1.70;;;;;;;;;;4945304;28;98976;-84
2023/10/05 14:58:14;;;;;;;5.20;1.50;;;;;;;;;;4945427;28;101797;-84
2023/10/05 15:00:41;;;;;;;4.90;1.67;;;;;;;;;;4926996;28;99994;-84
2023/10/05 15:03:08;;;;;;;3.80;1.52;;;;;;;;;;4928064;28;98781;-84
2023/10/05 15:05:37;;;;;;;6.35;1.70;;;;;;;;;;4927891;28;99749;-84
2023/10/05 15:08:04;;;;;;;4.35;1.70;;;;;;;;;;4929170;28;99429;-85
2023/10/05 15:10:31;;;;;;;6.30;1.70;;;;;;;;;;4932139;28;98555;-85
2023/10/05 15:12:59;;;;;;;4.90;1.50;;;;;;;;;;4926154;28;100319;-84
2023/10/05 15:15:25;;;;;;;6.50;1.70;;;;;;;;;;4929635;28;98559;-86
2023/10/05 15:17:52;;;;;;;5.53;1.90;;;;;;;;;;4929928;28;98739;-84
2023/10/05 15:20:22;;;;;;;5.63;1.80;;;;;;;;;;4927045;28;100499;-84
2023/10/05 15:22:49;;;;;;;4.78;1.60;;;;;;;;;;4929648;28;99435;-84
2023/10/05 15:25:17;;;;;;;4.68;1.70;;;;;;;;;;4927418;28;99423;-83
2023/10/05 15:27:45;;;;;;;5.63;1.83;;;;;;;;;;4955154;28;99216;-84